Time;durP1;ratioP1;P1;durP2;ratioP2;P2;SDS_P1;SDS_P2;PMS_P1;PMS_P2;Temp;Humidity;BMP_temperature;BMP_pressure;BME280_temperature;BME280_humidity;BME280_pressure;Samples;Min_cycle;Max_cycle;Signal;HPM_P1;HPM_P2
2022/03/11 00:00:43;;;;;;;11.23;7.70;;;3.90;99.90;;;;;;5073271;28;20431;-62
2022/03/11 00:03:10;;;;;;;15.00;9.90;;;3.90;99.90;;;;;;5055391;28;20304;-62
2022/03/11 00:05:36;;;;;;;12.90;8.20;;;3.90;99.90;;;;;;5086917;28;20415;-62
2022/03/11 00:08:02;;;;;;;9.80;7.67;;;3.90;99.90;;;;;;5093383;28;20444;-61
2022/03/11 00:10:28;;;;;;;12.83;8.20;;;3.80;99.90;;;;;;5079430;28;20416;-62
2022/03/11 00:12:54;;;;;;;9.47;7.63;;;3.70;99.90;;;;;;5073169;28;20928;-66
2022/03/11 00:15:19;;;;;;;9.17;7.43;;;3.80;99.90;;;;;;5074316;28;20516;-62
2022/03/11 00:17:45;;;;;;;11.90;8.47;;;3.70;99.90;;;;;;5055093;28;20640;-62
2022/03/11 00:20:11;;;;;;;9.57;7.60;;;3.70;99.90;;;;;;5081244;28;20174;-67
2022/03/11 00:22:36;;;;;;;13.63;8.30;;;3.70;99.90;;;;;;5092946;28;20209;-66
2022/03/11 00:25:03;;;;;;;14.20;8.07;;;3.60;99.90;;;;;;5085599;28;20175;-67
2022/03/11 00:27:29;;;;;;;12.10;7.23;;;3.60;99.90;;;;;;5056079;28;20247;-66
2022/03/11 00:29:55;;;;;;;11.63;7.73;;;3.50;99.90;;;;;;5077634;28;20415;-67
2022/03/11 00:32:21;;;;;;;7.27;6.53;;;3.50;99.90;;;;;;5093199;28;20193;-66
2022/03/11 00:34:46;;;;;;;9.63;7.60;;;3.50;99.90;;;;;;5089012;28;20412;-61
2022/03/11 00:37:12;;;;;;;8.00;6.73;;;3.50;99.90;;;;;;5073121;28;20610;-61
2022/03/11 00:39:37;;;;;;;13.00;7.07;;;3.50;99.90;;;;;;5077707;28;20840;-62
2022/03/11 00:42:03;;;;;;;10.90;6.47;;;3.40;99.90;;;;;;5092464;28;20209;-63
2022/03/11 00:44:30;;;;;;;6.77;6.10;;;3.50;99.90;;;;;;5092686;28;20258;-62
2022/03/11 00:46:55;;;;;;;8.30;7.00;;;3.40;99.90;;;;;;5093093;28;20649;-61
2022/03/11 00:49:21;;;;;;;9.40;6.37;;;3.40;99.90;;;;;;5089172;28;20542;-67
2022/03/11 00:51:46;;;;;;;11.43;7.33;;;3.40;99.90;;;;;;5072613;28;20202;-63
2022/03/11 00:54:12;;;;;;;12.10;7.43;;;3.40;99.90;;;;;;5077008;28;20534;-61
2022/03/11 00:56:38;;;;;;;10.40;5.87;;;3.30;99.90;;;;;;5074936;28;20208;-61
2022/03/11 00:59:03;;;;;;;7.60;6.30;;;3.30;99.90;;;;;;5071411;28;20648;-67
2022/03/11 01:01:29;;;;;;;13.30;8.33;;;3.30;99.90;;;;;;5090522;28;20192;-67
2022/03/11 01:03:54;;;;;;;7.83;6.60;;;3.30;99.90;;;;;;5092930;28;20166;-67
2022/03/11 01:06:20;;;;;;;7.00;6.30;;;3.20;99.90;;;;;;5095958;28;20665;-66
2022/03/11 01:08:46;;;;;;;6.97;5.60;;;3.20;99.90;;;;;;5095593;28;20592;-61
2022/03/11 01:11:12;;;;;;;9.63;6.67;;;3.20;99.90;;;;;;5094735;28;20194;-66
2022/03/11 01:13:40;;;;;;;9.20;6.27;;;3.10;99.90;;;;;;5096469;28;20208;-67
2022/03/11 01:16:06;;;;;;;7.10;6.40;;;3.10;99.90;;;;;;5093858;28;20400;-66
2022/03/11 01:18:32;;;;;;;12.80;6.63;;;3.10;99.90;;;;;;5074819;28;20405;-62
2022/03/11 01:20:58;;;;;;;11.70;6.07;;;3.10;99.90;;;;;;5076982;28;20199;-61
2022/03/11 01:23:24;;;;;;;7.70;6.30;;;3.00;99.90;;;;;;5076125;28;20216;-66
2022/03/11 01:25:49;;;;;;;6.60;6.00;;;3.00;99.90;;;;;;5076980;28;20169;-62
2022/03/11 01:28:15;;;;;;;10.10;7.47;;;2.90;99.90;;;;;;5095832;28;20451;-62
2022/03/11 01:30:41;;;;;;;8.30;6.50;;;2.90;99.90;;;;;;5095000;28;20166;-64
2022/03/11 01:33:07;;;;;;;8.90;6.50;;;2.90;99.90;;;;;;5058435;28;20175;-66
2022/03/11 01:35:33;;;;;;;7.83;6.00;;;3.00;99.90;;;;;;5075824;28;20404;-66
2022/03/11 01:37:59;;;;;;;11.60;6.77;;;3.00;99.90;;;;;;5075468;28;20781;-66
2022/03/11 01:40:25;;;;;;;9.30;6.63;;;2.90;99.90;;;;;;5094827;28;20403;-62
2022/03/11 01:42:51;;;;;;;12.00;7.50;;;2.90;99.90;;;;;;5078977;28;20789;-67
2022/03/11 01:45:17;;;;;;;9.93;6.87;;;2.90;99.90;;;;;;5075610;28;20416;-61
2022/03/11 01:47:43;;;;;;;6.10;5.57;;;2.90;99.90;;;;;;5090466;28;20197;-61
2022/03/11 01:50:09;;;;;;;7.00;5.53;;;2.80;99.90;;;;;;5094828;28;20895;-67
2022/03/11 01:52:37;;;;;;;7.67;5.60;;;2.80;99.90;;;;;;5093539;28;20461;-61
2022/03/11 01:55:04;;;;;;;8.70;6.30;;;2.80;99.90;;;;;;5077476;28;20498;-62
2022/03/11 01:57:37;;;;;;;11.87;7.17;;;2.80;99.90;;;;;;5073305;28;20422;-62
2022/03/11 02:00:07;;;;;;;7.83;6.50;;;2.80;99.90;;;;;;5075969;28;20415;-61
2022/03/11 02:02:33;;;;;;;7.70;5.93;;;2.80;99.90;;;;;;5095473;28;20416;-67
2022/03/11 02:05:00;;;;;;;9.13;6.40;;;2.80;99.90;;;;;;5088019;28;20426;-61
2022/03/11 02:07:26;;;;;;;11.70;7.47;;;2.70;99.90;;;;;;5075222;28;20451;-62
2022/03/11 02:09:53;;;;;;;6.60;5.83;;;2.70;99.90;;;;;;5074504;28;20444;-66
2022/03/11 02:12:37;;;;;;;11.77;8.07;;;2.60;99.90;;;;;;5057152;28;20416;-62
2022/03/11 02:15:07;;;;;;;10.90;6.60;;;2.60;99.90;;;;;;5082638;28;20506;-61
2022/03/11 02:17:34;;;;;;;7.33;5.30;;;2.60;99.90;;;;;;5094892;28;20399;-61
2022/03/11 02:20:00;;;;;;;9.83;6.43;;;2.50;99.90;;;;;;5087023;28;20916;-62
2022/03/11 02:22:26;;;;;;;7.73;6.80;;;2.50;99.90;;;;;;5074756;28;20474;-68
2022/03/11 02:24:52;;;;;;;8.20;7.17;;;2.50;99.90;;;;;;5062301;28;20185;-67
2022/03/11 02:27:19;;;;;;;11.73;8.07;;;2.50;99.90;;;;;;5094924;28;20447;-67
2022/03/11 02:29:44;;;;;;;9.03;6.97;;;2.40;99.90;;;;;;5090152;28;20491;-64
2022/03/11 02:32:10;;;;;;;13.53;8.27;;;2.40;99.60;;;;;;5074716;28;20429;-61
2022/03/11 02:34:38;;;;;;;10.13;8.10;;;2.30;99.70;;;;;;5076390;28;20185;-67
2022/03/11 02:37:04;;;;;;;11.87;7.03;;;2.30;99.60;;;;;;5094447;28;20214;-66
2022/03/11 02:39:30;;;;;;;11.13;6.93;;;2.30;99.30;;;;;;5093165;28;20534;-67
2022/03/11 02:41:57;;;;;;;7.43;6.23;;;2.40;99.40;;;;;;5074608;28;20515;-62
2022/03/11 02:44:24;;;;;;;9.43;7.33;;;2.30;99.90;;;;;;5074684;28;20630;-61
2022/03/11 02:46:50;;;;;;;11.30;8.00;;;2.30;99.00;;;;;;5093892;28;20447;-60
2022/03/11 02:49:16;;;;;;;13.93;6.80;;;2.30;98.90;;;;;;5093818;28;20408;-66
2022/03/11 02:51:42;;;;;;;13.77;8.13;;;2.30;98.60;;;;;;5057772;28;20457;-67
2022/03/11 02:54:08;;;;;;;14.93;7.33;;;2.20;98.70;;;;;;5074081;28;20434;-67
2022/03/11 02:56:33;;;;;;;11.10;6.90;;;2.20;98.40;;;;;;5090409;28;20880;-67
2022/03/11 02:58:59;;;;;;;11.90;7.83;;;2.20;98.30;;;;;;5075340;28;20504;-62
2022/03/11 03:01:25;;;;;;;13.17;7.90;;;2.10;98.30;;;;;;5079507;28;20198;-66
2022/03/11 03:03:50;;;;;;;10.27;7.60;;;2.10;98.10;;;;;;5074222;28;20197;-66
2022/03/11 03:06:16;;;;;;;10.77;8.20;;;2.20;98.00;;;;;;5086804;28;20177;-67
2022/03/11 03:08:41;;;;;;;17.03;7.30;;;2.10;97.70;;;;;;5092924;28;20199;-67
2022/03/11 03:11:07;;;;;;;8.77;7.57;;;2.10;97.30;;;;;;5090326;28;20550;-65
2022/03/11 03:13:33;;;;;;;11.43;7.83;;;2.10;96.90;;;;;;5076003;28;20569;-61
2022/03/11 03:15:58;;;;;;;8.57;7.70;;;2.10;96.50;;;;;;5093553;28;20172;-67
2022/03/11 03:18:24;;;;;;;10.97;7.07;;;2.20;97.00;;;;;;5093964;28;20693;-64
2022/03/11 03:20:50;;;;;;;9.90;7.43;;;2.10;96.70;;;;;;5081745;28;20162;-66
2022/03/11 03:23:16;;;;;;;9.40;6.40;;;2.00;96.50;;;;;;5073501;28;20162;-61
2022/03/11 03:25:41;;;;;;;7.10;6.47;;;2.10;96.40;;;;;;5067925;28;20177;-61
2022/03/11 03:28:08;;;;;;;13.40;8.03;;;2.10;96.30;;;;;;5092990;28;20447;-61
2022/03/11 03:30:34;;;;;;;12.25;7.50;;;2.00;96.30;;;;;;5092228;28;20167;-61
2022/03/11 03:33:00;;;;;;;10.10;6.68;;;2.00;96.10;;;;;;5093694;28;20654;-67
2022/03/11 03:35:25;;;;;;;8.60;7.70;;;1.90;96.20;;;;;;5083746;28;20174;-61
2022/03/11 03:37:51;;;;;;;11.43;6.20;;;1.90;96.10;;;;;;5073748;28;20415;-67
2022/03/11 03:40:17;;;;;;;10.07;7.00;;;1.90;96.30;;;;;;5062446;28;20181;-61
2022/03/11 03:42:47;;;;;;;13.37;7.90;;;1.90;96.00;;;;;;5093336;28;20638;-65
2022/03/11 03:45:12;;;;;;;11.77;6.90;;;1.90;96.60;;;;;;5086557;28;20174;-66
2022/03/11 03:47:38;;;;;;;8.80;7.83;;;1.90;96.10;;;;;;5073450;28;20210;-66
2022/03/11 03:50:04;;;;;;;10.53;6.30;;;1.90;96.00;;;;;;5077554;28;20412;-61
2022/03/11 03:52:30;;;;;;;11.93;6.82;;;2.00;96.20;;;;;;5093570;28;20221;-61
2022/03/11 03:54:55;;;;;;;12.97;7.13;;;1.90;95.60;;;;;;5090116;28;20632;-66
2022/03/11 03:57:22;;;;;;;14.13;7.60;;;1.80;95.30;;;;;;5073339;28;20537;-66
2022/03/11 03:59:47;;;;;;;9.67;7.77;;;1.80;95.20;;;;;;5085853;28;20231;-61
2022/03/11 04:02:13;;;;;;;11.17;8.13;;;1.80;94.80;;;;;;5074825;28;20822;-62
2022/03/11 04:04:39;;;;;;;13.73;7.03;;;1.80;95.40;;;;;;5081244;28;20178;-61
2022/03/11 04:07:04;;;;;;;11.10;7.00;;;1.80;95.00;;;;;;5073268;28;20197;-63
2022/03/11 04:09:30;;;;;;;14.63;7.30;;;1.80;94.40;;;;;;5082146;28;20178;-66
2022/03/11 04:11:56;;;;;;;9.30;5.70;;;1.80;94.50;;;;;;5093385;28;20185;-66
2022/03/11 04:14:21;;;;;;;8.03;6.03;;;1.80;94.40;;;;;;5084837;28;20576;-67
2022/03/11 04:16:47;;;;;;;10.23;7.40;;;1.70;94.10;;;;;;5073209;28;20170;-65
2022/03/11 04:19:13;;;;;;;10.73;6.50;;;1.70;94.00;;;;;;5078648;28;20267;-66
2022/03/11 04:21:38;;;;;;;8.97;6.87;;;1.70;93.70;;;;;;5092706;28;20423;-66
2022/03/11 04:24:12;;;;;;;11.27;7.40;;;1.70;93.60;;;;;;5089778;28;20162;-66
2022/03/11 04:26:39;;;;;;;8.20;6.77;;;1.70;93.10;;;;;;5093301;28;20162;-67
2022/03/11 04:29:05;;;;;;;16.33;7.67;;;1.70;93.10;;;;;;5084854;28;20405;-67
2022/03/11 04:31:31;;;;;;;13.25;7.28;;;1.60;93.30;;;;;;5072867;28;20440;-61
2022/03/11 04:33:57;;;;;;;8.00;5.67;;;1.60;93.50;;;;;;5079169;28;20530;-66
2022/03/11 04:36:23;;;;;;;11.70;7.45;;;1.60;93.20;;;;;;5093501;28;20646;-61
2022/03/11 04:38:48;;;;;;;10.77;6.67;;;1.60;93.00;;;;;;5089712;28;20209;-66
2022/03/11 04:41:14;;;;;;;8.53;6.53;;;1.50;92.90;;;;;;5096913;28;20189;-61
2022/03/11 04:43:39;;;;;;;9.30;7.20;;;1.50;92.10;;;;;;5096330;28;20235;-66
2022/03/11 04:46:05;;;;;;;15.37;7.17;;;1.50;93.20;;;;;;5097006;28;20695;-66
2022/03/11 04:48:31;;;;;;;9.67;6.30;;;1.50;92.80;;;;;;5090965;28;20206;-67
2022/03/11 04:50:57;;;;;;;16.50;7.60;;;1.40;92.40;;;;;;5094090;28;20472;-67
2022/03/11 04:53:23;;;;;;;6.63;6.00;;;1.40;92.70;;;;;;5096393;28;20178;-67
2022/03/11 04:55:49;;;;;;;11.50;6.67;;;1.40;93.90;;;;;;5096885;28;20219;-65
2022/03/11 04:58:14;;;;;;;11.10;7.40;;;1.50;93.20;;;;;;5094706;28;20884;-67
2022/03/11 05:00:40;;;;;;;7.30;6.37;;;1.40;93.50;;;;;;5084210;28;20422;-61
2022/03/11 05:03:06;;;;;;;10.47;7.93;;;1.40;93.00;;;;;;5096791;28;20246;-61
2022/03/11 05:05:31;;;;;;;9.10;6.93;;;1.40;92.70;;;;;;5096052;28;20181;-67
2022/03/11 05:07:57;;;;;;;9.63;7.40;;;1.40;93.10;;;;;;5096262;28;20239;-66
2022/03/11 05:10:22;;;;;;;8.57;6.37;;;1.30;93.10;;;;;;5095060;28;20170;-61
2022/03/11 05:12:48;;;;;;;9.60;6.23;;;1.40;93.50;;;;;;5096247;28;20186;-66
2022/03/11 05:15:14;;;;;;;8.47;7.67;;;1.40;93.20;;;;;;5095759;28;20166;-67
2022/03/11 05:17:39;;;;;;;8.37;6.70;;;1.40;93.10;;;;;;5075891;28;20177;-61
2022/03/11 05:20:06;;;;;;;9.43;7.50;;;1.30;93.20;;;;;;5075144;28;20185;-61
2022/03/11 05:22:32;;;;;;;7.15;6.45;;;1.20;93.40;;;;;;5094853;28;20584;-66
2022/03/11 05:24:59;;;;;;;9.68;6.43;;;1.20;93.40;;;;;;5096408;28;20264;-61
2022/03/11 05:27:24;;;;;;;13.55;8.13;;;1.20;93.60;;;;;;5078542;28;20208;-67
2022/03/11 05:29:50;;;;;;;7.67;6.53;;;1.20;93.40;;;;;;5074907;28;20249;-66
2022/03/11 05:32:16;;;;;;;11.03;8.33;;;1.20;94.70;;;;;;5090696;28;20314;-66
2022/03/11 05:34:42;;;;;;;14.23;7.93;;;1.20;94.00;;;;;;5096143;28;20169;-61
2022/03/11 05:37:10;;;;;;;9.98;6.15;;;1.20;93.80;;;;;;5092252;28;20260;-61
2022/03/11 05:39:36;;;;;;;6.97;6.28;;;1.10;93.30;;;;;;5095120;28;20166;-66
2022/03/11 05:42:03;;;;;;;13.30;7.22;;;1.10;93.20;;;;;;5095158;28;20215;-69
2022/03/11 05:44:28;;;;;;;6.88;6.22;;;1.10;92.70;;;;;;5095881;28;20177;-64
2022/03/11 05:46:55;;;;;;;6.73;6.00;;;1.00;93.10;;;;;;5063257;28;20198;-63
2022/03/11 05:49:21;;;;;;;7.25;6.55;;;1.00;93.30;;;;;;5056769;28;20197;-68
2022/03/11 05:51:46;;;;;;;10.25;7.03;;;1.00;93.30;;;;;;5072367;28;20674;-63
2022/03/11 05:54:12;;;;;;;9.13;7.67;;;1.00;93.30;;;;;;5095621;28;20169;-69
2022/03/11 05:56:38;;;;;;;8.77;6.33;;;1.00;92.50;;;;;;5095015;28;20535;-63
2022/03/11 05:59:04;;;;;;;9.17;5.60;;;1.00;92.80;;;;;;5085436;28;20227;-63
2022/03/11 06:01:31;;;;;;;16.10;8.10;;;1.00;92.60;;;;;;5075479;28;20182;-63
2022/03/11 06:03:56;;;;;;;9.93;6.40;;;1.00;92.20;;;;;;5082829;28;20416;-70
2022/03/11 06:06:22;;;;;;;11.43;7.30;;;1.00;92.10;;;;;;5095473;28;20174;-64
2022/03/11 06:08:48;;;;;;;10.27;6.50;;;1.00;91.10;;;;;;5088446;28;20742;-68
2022/03/11 06:11:14;;;;;;;7.45;6.38;;;1.10;90.90;;;;;;5074765;28;20201;-64
2022/03/11 06:13:39;;;;;;;8.40;7.00;;;1.10;91.00;;;;;;5061187;28;20179;-69
2022/03/11 06:16:05;;;;;;;9.47;7.53;;;1.10;90.30;;;;;;5095410;28;20162;-63
2022/03/11 06:18:31;;;;;;;14.48;7.18;;;1.10;88.70;;;;;;5092697;28;20212;-64
2022/03/11 06:20:57;;;;;;;8.37;6.83;;;1.00;88.60;;;;;;5095490;28;20623;-63
2022/03/11 06:23:23;;;;;;;7.97;6.77;;;1.00;88.50;;;;;;5094371;28;20170;-69
2022/03/11 06:25:49;;;;;;;13.20;7.75;;;1.10;91.00;;;;;;5075009;28;20170;-64
2022/03/11 06:28:15;;;;;;;11.20;6.90;;;1.10;88.60;;;;;;5074374;28;20248;-63
2022/03/11 06:30:41;;;;;;;9.93;6.50;;;1.10;88.60;;;;;;5093028;28;20494;-64
2022/03/11 06:33:06;;;;;;;11.50;7.60;;;1.20;88.70;;;;;;5095056;28;20197;-64
2022/03/11 06:35:33;;;;;;;7.30;6.60;;;1.20;88.80;;;;;;5076973;28;20420;-69
2022/03/11 06:37:59;;;;;;;10.85;7.15;;;1.10;88.60;;;;;;5074825;28;20193;-69
2022/03/11 06:40:25;;;;;;;7.87;6.10;;;1.10;88.60;;;;;;5089508;28;20216;-71
2022/03/11 06:42:51;;;;;;;10.77;6.82;;;1.20;88.70;;;;;;5094698;28;20217;-72
2022/03/11 06:45:18;;;;;;;12.70;6.82;;;1.20;88.80;;;;;;5079848;28;20422;-66
2022/03/11 06:47:45;;;;;;;22.73;7.90;;;1.20;88.70;;;;;;5074083;28;20252;-65
2022/03/11 06:50:11;;;;;;;9.18;6.50;;;1.30;88.80;;;;;;5078081;28;20208;-61
2022/03/11 06:52:36;;;;;;;12.03;7.50;;;1.30;88.70;;;;;;5074267;28;20244;-65
2022/03/11 06:55:03;;;;;;;7.50;5.67;;;1.40;88.90;;;;;;5074449;28;20408;-60
2022/03/11 06:57:30;;;;;;;10.40;7.35;;;1.40;88.80;;;;;;5074336;28;20185;-66
2022/03/11 06:59:56;;;;;;;11.00;7.43;;;1.40;88.80;;;;;;5086868;28;20189;-62
2022/03/11 07:02:21;;;;;;;12.33;7.10;;;1.40;88.90;;;;;;5094000;28;20304;-61
2022/03/11 07:04:47;;;;;;;11.13;7.00;;;1.40;88.90;;;;;;5090532;28;20534;-65
2022/03/11 07:07:13;;;;;;;17.93;6.70;;;1.40;88.80;;;;;;5094510;28;20272;-65
2022/03/11 07:09:38;;;;;;;16.60;7.87;;;1.50;88.90;;;;;;5092804;28;20174;-67
2022/03/11 07:12:05;;;;;;;13.17;8.03;;;1.50;88.90;;;;;;5094398;28;20291;-66
2022/03/11 07:14:35;;;;;;;10.70;7.03;;;1.60;89.10;;;;;;5081865;28;20650;-61
2022/03/11 07:17:01;;;;;;;8.30;6.85;;;1.70;89.20;;;;;;5073906;28;20181;-61
2022/03/11 07:19:27;;;;;;;11.63;7.97;;;1.70;89.10;;;;;;5083671;28;20180;-66
2022/03/11 07:21:54;;;;;;;15.13;6.27;;;1.70;89.10;;;;;;5094142;28;20420;-62
2022/03/11 07:24:20;;;;;;;10.33;6.80;;;1.80;89.20;;;;;;5085742;28;20189;-63
2022/03/11 07:26:45;;;;;;;6.40;5.83;;;1.80;89.10;;;;;;5093892;28;20395;-63
2022/03/11 07:29:11;;;;;;;8.17;6.10;;;1.80;89.30;;;;;;5091922;28;20204;-61
2022/03/11 07:31:36;;;;;;;10.00;6.30;;;1.80;89.10;;;;;;5093840;28;20189;-66
2022/03/11 07:34:02;;;;;;;9.03;6.13;;;1.90;89.20;;;;;;5091630;28;20589;-61
2022/03/11 07:36:28;;;;;;;13.50;6.83;;;1.90;89.20;;;;;;5093950;28;20545;-66
2022/03/11 07:38:54;;;;;;;9.23;7.10;;;1.90;89.20;;;;;;5085775;28;20173;-66
2022/03/11 07:41:20;;;;;;;8.83;6.00;;;1.90;89.20;;;;;;5073445;28;20190;-66
2022/03/11 07:43:46;;;;;;;9.53;5.60;;;1.90;89.20;;;;;;5078047;28;20416;-66
2022/03/11 07:46:14;;;;;;;8.27;6.23;;;2.00;89.40;;;;;;5093941;28;20403;-61
2022/03/11 07:48:43;;;;;;;13.68;6.05;;;2.00;89.30;;;;;;5089351;28;20884;-67
2022/03/11 07:51:09;;;;;;;13.33;6.87;;;2.00;89.30;;;;;;5073224;28;20245;-67
2022/03/11 07:53:35;;;;;;;12.37;6.37;;;2.10;89.50;;;;;;5083712;28;20954;-61
2022/03/11 07:56:04;;;;;;;18.87;7.40;;;2.20;89.40;;;;;;5093680;28;20449;-61
2022/03/11 07:58:30;;;;;;;13.17;8.60;;;2.30;89.50;;;;;;5092590;28;20465;-68
2022/03/11 08:00:56;;;;;;;7.93;6.93;;;2.30;89.50;;;;;;5093503;28;20403;-67
2022/03/11 08:03:22;;;;;;;18.80;7.90;;;2.40;89.70;;;;;;5093596;28;20404;-61
2022/03/11 08:05:48;;;;;;;10.00;7.17;;;2.40;89.60;;;;;;5093505;28;20172;-66
2022/03/11 08:08:14;;;;;;;12.03;8.40;;;2.50;90.80;;;;;;5093739;28;20447;-66
2022/03/11 08:10:39;;;;;;;10.20;6.50;;;2.50;81.70;;;;;;5092601;28;20403;-66
2022/03/11 08:13:08;;;;;;;8.50;7.10;;;2.50;81.00;;;;;;5094737;28;20403;-65
2022/03/11 08:15:37;;;;;;;12.30;6.17;;;2.60;81.30;;;;;;5100117;28;20158;-67
2022/03/11 08:18:03;;;;;;;14.40;6.93;;;2.60;81.30;;;;;;5099737;28;20402;-61
2022/03/11 08:20:30;;;;;;;6.40;5.80;;;2.70;83.10;;;;;;5099165;28;20399;-61
2022/03/11 08:22:56;;;;;;;9.83;6.97;;;2.80;78.90;;;;;;5100056;28;20916;-60
2022/03/11 08:25:26;;;;;;;9.87;6.30;;;2.80;75.70;;;;;;5099707;28;20756;-61
2022/03/11 08:27:54;;;;;;;9.80;8.10;;;2.90;77.40;;;;;;5099954;28;20542;-66
2022/03/11 08:30:20;;;;;;;11.90;7.00;;;3.00;75.80;;;;;;5099243;28;20402;-61
2022/03/11 08:32:48;;;;;;;8.50;6.87;;;3.10;74.70;;;;;;5099994;28;20423;-66
2022/03/11 08:35:13;;;;;;;9.63;5.73;;;3.10;73.40;;;;;;5099516;28;20398;-67
2022/03/11 08:37:39;;;;;;;8.40;7.10;;;3.20;71.20;;;;;;5099781;28;20399;-66
2022/03/11 08:40:07;;;;;;;10.93;5.80;;;3.30;72.00;;;;;;5099146;28;20157;-67
2022/03/11 08:42:34;;;;;;;9.53;8.17;;;3.40;71.10;;;;;;5099908;28;20460;-66
2022/03/11 08:45:00;;;;;;;9.17;7.27;;;3.60;69.30;;;;;;5099775;28;20879;-61
2022/03/11 08:47:26;;;;;;;10.37;6.90;;;3.70;69.20;;;;;;5099746;28;20496;-66
2022/03/11 08:49:52;;;;;;;11.30;8.30;;;3.80;66.90;;;;;;5098955;28;20902;-61
2022/03/11 08:52:19;;;;;;;7.93;6.40;;;3.90;67.90;;;;;;5099469;28;20529;-61
2022/03/11 08:54:45;;;;;;;6.90;6.23;;;4.10;66.80;;;;;;5099660;28;20416;-61
2022/03/11 08:57:11;;;;;;;11.57;8.17;;;4.20;66.00;;;;;;5099907;28;20388;-66
2022/03/11 08:59:37;;;;;;;12.17;6.83;;;4.30;66.50;;;;;;5098760;28;20400;-66
2022/03/11 09:02:07;;;;;;;12.33;8.03;;;4.50;67.80;;;;;;5099635;28;20304;-63
2022/03/11 09:04:35;;;;;;;11.20;6.97;;;4.70;67.20;;;;;;5099744;28;20492;-66
2022/03/11 09:07:02;;;;;;;11.37;6.53;;;4.80;65.80;;;;;;5099600;28;20896;-61
2022/03/11 09:09:28;;;;;;;9.40;6.73;;;4.80;61.30;;;;;;5098364;28;20404;-62
2022/03/11 09:11:54;;;;;;;11.00;7.20;;;4.80;60.20;;;;;;5099453;28;20978;-67
2022/03/11 09:14:19;;;;;;;7.70;6.57;;;4.90;58.10;;;;;;5099635;28;20415;-67
2022/03/11 09:16:45;;;;;;;7.57;6.47;;;4.90;57.50;;;;;;5099623;28;20171;-67
2022/03/11 09:19:11;;;;;;;12.20;6.43;;;5.10;54.20;;;;;;5080720;28;20829;-67
2022/03/11 09:21:37;;;;;;;11.47;7.13;;;5.30;51.30;;;;;;5099506;28;20700;-67
2022/03/11 09:24:03;;;;;;;6.10;5.37;;;5.50;47.60;;;;;;5097503;28;20629;-61
2022/03/11 09:26:29;;;;;;;7.50;5.97;;;5.80;47.20;;;;;;5095085;28;20201;-67
2022/03/11 09:28:55;;;;;;;9.90;4.90;;;6.20;45.30;;;;;;5089244;28;20455;-66
2022/03/11 09:31:21;;;;;;;7.97;6.60;;;6.30;43.40;;;;;;5075881;28;20275;-65
2022/03/11 09:33:47;;;;;;;6.77;6.17;;;6.50;39.60;;;;;;5091338;28;20515;-66
2022/03/11 09:36:12;;;;;;;10.80;6.40;;;6.70;38.20;;;;;;5085283;28;20175;-67
2022/03/11 09:38:39;;;;;;;8.40;7.07;;;7.00;39.90;;;;;;5056941;28;20212;-68
2022/03/11 09:41:05;;;;;;;7.27;6.07;;;7.40;41.40;;;;;;5083371;28;20201;-67
2022/03/11 09:43:32;;;;;;;9.47;6.30;;;7.80;41.30;;;;;;5095900;28;20399;-62
2022/03/11 09:45:58;;;;;;;7.57;6.87;;;8.20;40.80;;;;;;5088818;28;20486;-63
2022/03/11 09:48:25;;;;;;;7.27;6.13;;;8.20;35.90;;;;;;5075356;28;21007;-68
2022/03/11 09:50:50;;;;;;;9.57;6.17;;;8.30;33.10;;;;;;5074345;28;20421;-62
2022/03/11 09:53:17;;;;;;;6.80;5.77;;;8.40;30.70;;;;;;5075670;28;20419;-67
2022/03/11 09:55:43;;;;;;;7.30;5.70;;;8.50;29.60;;;;;;5060315;28;20268;-62
2022/03/11 09:58:09;;;;;;;8.00;5.97;;;8.70;28.60;;;;;;5095701;28;20408;-62
2022/03/11 10:00:35;;;;;;;6.87;5.67;;;8.90;27.80;;;;;;5093546;28;20420;-61
2022/03/11 10:03:01;;;;;;;6.97;5.57;;;8.90;25.00;;;;;;5095470;28;20418;-66
2022/03/11 10:05:50;;;;;;;10.03;6.27;;;8.90;23.60;;;;;;5077617;28;20757;-68
2022/03/11 10:08:29;;;;;;;7.23;5.73;;;9.00;20.20;;;;;;5075322;28;20198;-67
2022/03/11 10:10:55;;;;;;;6.33;5.60;;;9.10;19.00;;;;;;5075106;28;20408;-68
2022/03/11 10:13:20;;;;;;;9.70;5.80;;;8.60;16.70;;;;;;5075295;28;20407;-63
2022/03/11 10:15:46;;;;;;;10.00;6.03;;;8.60;16.60;;;;;;5074946;28;20244;-62
2022/03/11 10:18:12;;;;;;;9.73;6.10;;;8.80;13.40;;;;;;5075187;28;20185;-67
2022/03/11 10:20:38;;;;;;;7.57;5.70;;;9.10;14.10;;;;;;5073277;28;20174;-62
2022/03/11 10:23:11;;;;;;;9.27;5.30;;;9.30;13.10;;;;;;5075024;28;20429;-68
2022/03/11 10:25:37;;;;;;;15.70;6.63;;;9.60;11.80;;;;;;5094666;28;20415;-62
2022/03/11 10:28:14;;;;;;;7.17;5.63;;;9.80;11.90;;;;;;5095082;28;20477;-62
2022/03/11 10:30:41;;;;;;;6.93;6.20;;;10.10;11.30;;;;;;5074185;28;20419;-62
2022/03/11 10:33:10;;;;;;;8.97;5.83;;;10.40;11.60;;;;;;5074991;28;20393;-65
2022/03/11 10:35:43;;;;;;;6.23;5.63;;;10.90;12.00;;;;;;5093293;28;20403;-72
2022/03/11 10:38:15;;;;;;;16.83;6.50;;;11.10;9.40;;;;;;5092448;28;20406;-66
2022/03/11 10:40:42;;;;;;;6.77;5.93;;;11.20;7.00;;;;;;5072842;28;20431;-65
2022/03/11 10:43:18;;;;;;;8.73;5.50;;;11.40;6.20;;;;;;5074687;28;20470;-71
2022/03/11 10:46:14;;;;;;;6.17;5.47;;;11.80;9.20;;;;;;5094756;28;20451;-72
2022/03/11 10:48:54;;;;;;;7.57;5.90;;;11.90;4.20;;;;;;5089098;28;20460;-65
2022/03/11 10:51:32;;;;;;;6.83;5.40;;;11.90;4.00;;;;;;5074330;28;20534;-71
2022/03/11 10:54:03;;;;;;;8.90;6.27;;;12.10;2.30;;;;;;5080431;28;20397;-68
2022/03/11 10:56:39;;;;;;;9.20;6.40;;;12.60;2.00;;;;;;5094472;28;20764;-70
2022/03/11 10:59:35;;;;;;;7.47;5.20;;;12.80;1.00;;;;;;5086650;28;20423;-70
2022/03/11 11:02:01;;;;;;;9.50;5.90;;;12.90;1.00;;;;;;5060994;28;20410;-64
2022/03/11 11:04:27;;;;;;;8.50;5.50;;;12.60;1.00;;;;;;5082961;28;20740;-70
2022/03/11 11:06:54;;;;;;;6.10;5.53;;;12.20;1.00;;;;;;5094460;28;20194;-70
2022/03/11 11:09:23;;;;;;;6.97;5.10;;;12.00;1.00;;;;;;5086298;28;20241;-70
2022/03/11 11:11:50;;;;;;;5.53;5.03;;;12.00;1.00;;;;;;5074030;28;20448;-64
2022/03/11 11:14:16;;;;;;;6.47;5.23;;;11.90;1.00;;;;;;5079636;28;20423;-64
2022/03/11 11:16:44;;;;;;;6.23;5.63;;;11.90;1.00;;;;;;5094059;28;20403;-65
2022/03/11 11:19:18;;;;;;;7.50;4.73;;;11.80;1.00;;;;;;5088484;28;20193;-71
2022/03/11 11:21:49;;;;;;;7.20;5.37;;;11.40;1.00;;;;;;5073854;28;20405;-71
2022/03/11 11:24:17;;;;;;;5.50;4.03;;;11.20;1.00;;;;;;5078190;28;20422;-72
2022/03/11 11:26:48;;;;;;;7.30;5.07;;;11.00;1.00;;;;;;5094036;28;20403;-70
2022/03/11 11:29:20;;;;;;;5.50;4.33;;;10.60;1.00;;;;;;5089304;28;20399;-71
2022/03/11 11:31:47;;;;;;;7.23;5.30;;;10.40;1.00;;;;;;5073351;28;20423;-62
2022/03/11 11:34:45;;;;;;;8.30;5.00;;;10.30;1.00;;;;;;5079707;28;20416;-68
2022/03/11 11:37:37;;;;;;;7.20;4.53;;;10.30;1.00;;;;;;5038585;28;20764;-65
2022/03/11 11:40:33;;;;;;;7.63;5.47;;;10.40;1.00;;;;;;5079808;28;20401;-71
2022/03/11 11:43:13;;;;;;;5.00;4.57;;;10.50;1.00;;;;;;5051545;28;20519;-65
2022/03/11 11:45:48;;;;;;;8.40;5.37;;;10.70;1.00;;;;;;5072850;28;20418;-66
2022/03/11 11:48:33;;;;;;;9.20;5.33;;;10.90;1.00;;;;;;5092024;28;20443;-65
2022/03/11 11:51:04;;;;;;;5.03;4.63;;;11.00;1.00;;;;;;5072709;28;20391;-65
2022/03/11 11:53:33;;;;;;;6.53;4.40;;;11.20;1.00;;;;;;5075683;28;20400;-65
2022/03/11 11:56:00;;;;;;;5.30;4.80;;;11.30;1.00;;;;;;5093841;28;20757;-72
2022/03/11 11:58:26;;;;;;;7.73;5.07;;;11.30;1.00;;;;;;5064876;28;20751;-71
2022/03/11 12:00:55;;;;;;;5.47;4.63;;;11.40;1.00;;;;;;5072701;28;20396;-71
2022/03/11 12:03:41;;;;;;;6.40;4.47;;;11.40;1.00;;;;;;5081985;28;20423;-65
2022/03/11 12:06:07;;;;;;;6.53;4.27;;;11.50;1.00;;;;;;5093487;28;20404;-64
2022/03/11 12:08:39;;;;;;;7.63;4.50;;;11.70;1.00;;;;;;5082286;28;20433;-70
2022/03/11 12:11:05;;;;;;;7.40;5.03;;;12.00;1.00;;;;;;5073115;28;20678;-66
2022/03/11 12:13:36;;;;;;;8.03;4.03;;;12.30;1.00;;;;;;5081989;28;20426;-64
2022/03/11 12:16:03;;;;;;;8.87;4.10;;;12.50;1.00;;;;;;5075418;28;20535;-71
2022/03/11 12:18:44;;;;;;;5.40;4.90;;;12.80;1.00;;;;;;5066635;28;20408;-71
2022/03/11 12:21:27;;;;;;;4.50;4.10;;;13.00;1.00;;;;;;5073065;28;20403;-65
2022/03/11 12:23:53;;;;;;;11.60;3.90;;;13.20;1.00;;;;;;5083753;28;20419;-71
2022/03/11 12:26:32;;;;;;;8.40;4.80;;;13.20;1.00;;;;;;5093382;28;20386;-71
2022/03/11 12:28:59;;;;;;;7.17;4.00;;;13.50;1.00;;;;;;5090197;28;20418;-66
2022/03/11 12:31:25;;;;;;;7.03;3.83;;;13.80;1.00;;;;;;5074958;28;20402;-70
2022/03/11 12:33:57;;;;;;;4.53;3.80;;;14.30;1.00;;;;;;5084011;28;20383;-65
2022/03/11 12:36:25;;;;;;;6.27;4.37;;;14.40;1.00;;;;;;5073117;28;20454;-64
2022/03/11 12:38:52;;;;;;;7.00;3.90;;;14.60;1.00;;;;;;5079785;28;20428;-67
2022/03/11 12:41:30;;;;;;;4.40;4.00;;;15.10;1.00;;;;;;5075088;28;20424;-71
2022/03/11 12:43:59;;;;;;;5.60;4.10;;;15.40;1.00;;;;;;5092648;28;20437;-72
2022/03/11 12:46:26;;;;;;;6.23;3.97;;;15.80;1.00;;;;;;5093248;28;20392;-70
2022/03/11 12:48:52;;;;;;;4.57;4.17;;;16.00;1.00;;;;;;5071749;28;20495;-65
2022/03/11 12:51:21;;;;;;;5.97;3.73;;;16.00;1.00;;;;;;5072660;28;20440;-70
2022/03/11 12:53:52;;;;;;;4.00;3.70;;;16.10;1.00;;;;;;5090953;28;20438;-72